Time;durP1;ratioP1;P1;durP2;ratioP2;P2;SDS_P1;SDS_P2;PMS_P1;PMS_P2;Temp;Humidity;BMP_temperature;BMP_pressure;BME280_temperature;BME280_humidity;BME280_pressure;Samples;Min_cycle;Max_cycle;Signal;HPM_P1;HPM_P2
2022/08/11 00:01:46;;;;;;;6.90;4.63;;;;;;;;;;10517950;28;20024;-74
2022/08/11 00:06:47;;;;;;;6.07;4.78;;;;;;;;;;10518629;28;20024;-74
2022/08/11 00:11:49;;;;;;;7.07;4.75;;;;;;;;;;10535999;28;20024;-74
2022/08/11 00:16:53;;;;;;;6.95;5.07;;;;;;;;;;10517855;28;20477;-74
2022/08/11 00:21:54;;;;;;;8.43;4.53;;;;;;;;;;10535647;28;20466;-74
2022/08/11 00:26:54;;;;;;;8.18;4.88;;;;;;;;;;10517303;28;20024;-73
2022/08/11 00:31:56;;;;;;;8.80;5.80;;;;;;;;;;10517421;28;20017;-74
2022/08/11 00:37:01;;;;;;;8.43;5.55;;;;;;;;;;10517010;28;20023;-74
2022/08/11 00:42:20;;;;;;;10.07;5.32;;;;;;;;;;10517218;28;20177;-74
2022/08/11 00:47:30;;;;;;;7.13;4.93;;;;;;;;;;10500231;28;20020;-73
2022/08/11 00:52:43;;;;;;;6.43;5.30;;;;;;;;;;10516868;28;20112;-75
2022/08/11 00:58:02;;;;;;;8.75;5.78;;;;;;;;;;10525394;28;20481;-74
2022/08/11 01:03:05;;;;;;;6.85;4.80;;;;;;;;;;10511755;28;20024;-73
2022/08/11 01:08:20;;;;;;;7.68;5.25;;;;;;;;;;10525386;28;20076;-74
2022/08/11 01:13:20;;;;;;;13.07;5.30;;;;;;;;;;10543244;28;20077;-73
2022/08/11 01:18:36;;;;;;;7.53;6.00;;;;;;;;;;10543040;28;20028;-73
2022/08/11 01:23:51;;;;;;;9.52;5.60;;;;;;;;;;10524801;28;20107;-74
2022/08/11 01:29:10;;;;;;;9.40;5.72;;;;;;;;;;10493859;28;20032;-74
2022/08/11 01:34:10;;;;;;;;;;;;;;;;;;10524596;28;20028;-74
2022/08/11 01:39:23;;;;;;;7.45;5.35;;;;;;;;;;10523750;28;19908;-73
2022/08/11 01:44:42;;;;;;;7.28;6.15;;;;;;;;;;10523518;28;20134;-74
2022/08/11 01:49:47;;;;;;;9.07;6.05;;;;;;;;;;10523840;28;20101;-74
2022/08/11 01:55:02;;;;;;;8.25;6.25;;;;;;;;;;10523346;28;20481;-74
2022/08/11 02:00:05;;;;;;;7.53;5.45;;;;;;;;;;10499888;28;20028;-74
2022/08/11 02:05:13;;;;;;;9.15;5.68;;;;;;;;;;10504563;28;20020;-74
2022/08/11 02:15:38;;;;;;;10.90;6.13;;;;;;;;;;10541008;28;20024;-74
2022/08/11 02:26:15;;;;;;;8.50;6.05;;;;;;;;;;10540970;28;20032;-74
2022/08/11 02:37:02;;;;;;;9.85;5.90;;;;;;;;;;10553720;28;20028;-74
2022/08/11 02:42:24;;;;;;;8.85;6.13;;;;;;;;;;10521223;28;20051;-75
2022/08/11 02:47:30;;;;;;;11.13;6.75;;;;;;;;;;10539158;28;20024;-74
2022/08/11 02:52:49;;;;;;;10.32;5.53;;;;;;;;;;10520929;28;20095;-74
2022/08/11 02:58:08;;;;;;;8.55;6.28;;;;;;;;;;10520601;28;20028;-74
2022/08/11 03:03:17;;;;;;;10.75;6.85;;;;;;;;;;10520805;28;20484;-73
2022/08/11 03:08:40;;;;;;;10.85;6.45;;;;;;;;;;10520464;28;20023;-74
2022/08/11 03:19:29;;;;;;;11.70;7.90;;;;;;;;;;10538636;28;20020;-73
2022/08/11 03:24:35;;;;;;;13.10;6.85;;;;;;;;;;10519708;28;20019;-74
2022/08/11 03:29:54;;;;;;;11.45;7.32;;;;;;;;;;10537392;28;20369;-74
2022/08/11 03:34:56;;;;;;;14.18;7.43;;;;;;;;;;10519283;28;20027;-73
2022/08/11 03:40:02;;;;;;;11.43;6.75;;;;;;;;;;10537236;28;20024;-74
2022/08/11 03:45:20;;;;;;;12.52;7.35;;;;;;;;;;10518861;28;20048;-73
2022/08/11 03:50:36;;;;;;;7.95;7.00;;;;;;;;;;10518573;28;20028;-73
2022/08/11 03:55:54;;;;;;;11.15;6.95;;;;;;;;;;10518341;28;20024;-73
2022/08/11 04:00:55;;;;;;;;;;;;;;;;;;10518447;28;20020;-73
2022/08/11 04:06:13;;;;;;;8.15;6.53;;;;;;;;;;10517991;28;20346;-73
2022/08/11 04:11:29;;;;;;;10.43;7.40;;;;;;;;;;10517791;28;20027;-73
2022/08/11 04:16:42;;;;;;;7.90;6.00;;;;;;;;;;10518071;28;20083;-75
2022/08/11 04:22:01;;;;;;;9.38;7.07;;;;;;;;;;10517670;28;20031;-74
2022/08/11 04:27:25;;;;;;;11.68;6.55;;;;;;;;;;10517397;28;20485;-74
2022/08/11 04:32:37;;;;;;;13.32;6.88;;;;;;;;;;10470590;28;20035;-76
2022/08/11 04:37:47;;;;;;;10.75;7.05;;;;;;;;;;10519635;28;20024;-74
2022/08/11 05:10:18;;;;;;;25.30;10.18;;;;;;;;;;10544747;28;20028;-74
2022/08/11 05:36:59;;;;;;;8.52;5.55;;;;;;;;;;10534258;28;20028;-75
2022/08/11 05:58:07;;;;;;;9.43;5.25;;;;;;;;;;10499310;28;20447;-74
2022/08/11 06:03:09;;;;;;;9.68;4.75;;;;;;;;;;10520208;22;20086;-75
2022/08/11 06:08:11;;;;;;;9.88;4.05;;;;;;;;;;10522429;28;20100;-74
2022/08/11 06:13:15;;;;;;;7.93;4.68;;;;;;;;;;10540247;28;20107;-75
2022/08/11 06:18:15;;;;;;;7.28;4.55;;;;;;;;;;10522106;28;20022;-75
2022/08/11 06:23:19;;;;;;;10.15;4.07;;;;;;;;;;10521905;28;20017;-73
2022/08/11 06:28:29;;;;;;;6.60;4.20;;;;;;;;;;10505385;28;20016;-73
2022/08/11 06:33:29;;;;;;;5.30;2.70;;;;;;;;;;10521615;28;20111;-74
2022/08/11 06:38:35;;;;;;;8.03;2.53;;;;;;;;;;10539404;28;20528;-74
2022/08/11 06:43:48;;;;;;;6.17;3.30;;;;;;;;;;10510128;28;20031;-74
2022/08/11 06:48:49;;;;;;;4.72;3.30;;;;;;;;;;10496084;28;20067;-74
2022/08/11 06:53:50;;;;;;;10.77;4.05;;;;;;;;;;10478538;28;20055;-74
2022/08/11 07:04:12;;;;;;;7.18;2.97;;;;;;;;;;10496959;28;20056;-74
2022/08/11 07:31:15;;;;;;;4.25;1.83;;;;;;;;;;10495414;28;20029;-74
2022/08/11 07:36:16;;;;;;;3.40;2.13;;;;;;;;;;10494966;28;20074;-74
2022/08/11 07:41:18;;;;;;;2.80;2.20;;;;;;;;;;10495051;28;20032;-74
2022/08/11 07:56:57;;;;;;;4.35;2.30;;;;;;;;;;10493669;28;20115;-74
2022/08/11 08:17:59;;;;;;;3.42;1.77;;;;;;;;;;10494512;28;20074;-75
2022/08/11 08:23:01;;;;;;;5.25;2.20;;;;;;;;;;10475733;28;20047;-73
2022/08/11 08:28:08;;;;;;;2.03;1.70;;;;;;;;;;10493996;28;20048;-74
2022/08/11 08:33:10;;;;;;;4.07;1.83;;;;;;;;;;10475374;28;20036;-74
2022/08/11 08:38:11;;;;;;;2.80;1.98;;;;;;;;;;10493722;28;20035;-75
2022/08/11 08:43:14;;;;;;;7.00;2.72;;;;;;;;;;10492800;28;20130;-73
2022/08/11 08:48:15;;;;;;;4.03;1.90;;;;;;;;;;10474705;28;20028;-74
2022/08/11 08:53:19;;;;;;;5.28;2.40;;;;;;;;;;10492556;28;20032;-74
2022/08/11 08:58:20;;;;;;;3.65;1.80;;;;;;;;;;10474895;28;20482;-73
2022/08/11 09:03:21;;;;;;;2.55;2.10;;;;;;;;;;10493050;28;20049;-74
2022/08/11 09:08:22;;;;;;;4.63;2.22;;;;;;;;;;10474811;28;20025;-74
2022/08/11 09:13:22;;;;;;;3.97;2.03;;;;;;;;;;10474785;28;20039;-75
2022/08/11 09:18:22;;;;;;;1.87;1.73;;;;;;;;;;10499267;28;20027;-74
2022/08/11 09:28:43;;;;;;;2.80;2.20;;;;;;;;;;10500049;28;20099;-74
2022/08/11 09:33:43;;;;;;;7.05;3.20;;;;;;;;;;10481860;28;20107;-75
2022/08/11 09:49:22;;;;;;;2.30;1.88;;;;;;;;;;10499952;28;20021;-74
2022/08/11 09:54:23;;;;;;;3.78;2.10;;;;;;;;;;10481161;28;20020;-73
2022/08/11 09:59:24;;;;;;;7.15;1.70;;;;;;;;;;10480878;28;20037;-73
2022/08/11 10:04:34;;;;;;;3.87;1.90;;;;;;;;;;10472435;28;20186;-74
2022/08/11 10:09:53;;;;;;;4.38;1.70;;;;;;;;;;10455696;28;20514;-73
2022/08/11 10:20:15;;;;;;;12.43;3.95;;;;;;;;;;10470912;28;20086;-73
2022/08/11 10:35:53;;;;;;;4.20;1.75;;;;;;;;;;10444746;28;20021;-74
2022/08/11 11:02:15;;;;;;;3.22;2.20;;;;;;;;;;10466162;28;20498;-73
2022/08/11 11:07:20;;;;;;;2.45;1.77;;;;;;;;;;10496666;28;20035;-73
2022/08/11 11:17:56;;;;;;;3.20;1.85;;;;;;;;;;10510746;28;20020;-75
2022/08/11 11:23:00;;;;;;;4.28;1.70;;;;;;;;;;10477667;28;20031;-75
2022/08/11 11:28:00;;;;;;;5.13;2.20;;;;;;;;;;10477958;28;20112;-74
2022/08/11 11:33:18;;;;;;;3.28;2.40;;;;;;;;;;10493639;28;20939;-74
2022/08/11 11:38:18;;;;;;;3.40;2.65;;;;;;;;;;10476055;28;20036;-74
2022/08/11 11:43:19;;;;;;;3.77;2.60;;;;;;;;;;10476811;28;20020;-74
2022/08/11 11:48:19;;;;;;;3.80;2.40;;;;;;;;;;10493420;28;20772;-74
2022/08/11 11:53:20;;;;;;;9.37;2.80;;;;;;;;;;10493060;28;20017;-74
2022/08/11 12:03:40;;;;;;;4.30;2.80;;;;;;;;;;10494598;28;20040;-73
2022/08/11 12:08:41;;;;;;;6.95;2.90;;;;;;;;;;10494047;28;20021;-73
2022/08/11 12:13:43;;;;;;;6.40;3.10;;;;;;;;;;10475813;28;20505;-74
2022/08/11 12:18:45;;;;;;;5.60;3.20;;;;;;;;;;10475325;28;20440;-74
2022/08/11 12:29:06;;;;;;;4.57;3.03;;;;;;;;;;10493323;28;20051;-74
2022/08/11 12:34:08;;;;;;;3.63;2.97;;;;;;;;;;10475357;28;20493;-74
2022/08/11 12:39:10;;;;;;;5.72;3.10;;;;;;;;;;10492701;28;20059;-74
2022/08/11 12:45:26;;;;;;;9.43;3.25;;;;;;;;;;10492861;28;20103;-73
2022/08/11 12:55:06;;;;;;;5.32;2.60;;;;;;;;;;10507073;28;20016;-74
2022/08/11 13:05:26;;;;;;;3.25;2.70;;;;;;;;;;10492654;28;20057;-73
2022/08/11 13:15:50;;;;;;;4.60;2.50;;;;;;;;;;10492882;28;20024;-73
2022/08/11 13:20:52;;;;;;;4.30;2.70;;;;;;;;;;10474128;28;20112;-74
2022/08/11 13:25:53;;;;;;;5.70;3.15;;;;;;;;;;10492451;28;20024;-74
2022/08/11 13:31:11;;;;;;;5.10;3.38;;;;;;;;;;10473860;28;20020;-75
2022/08/11 13:36:14;;;;;;;4.75;2.92;;;;;;;;;;10473934;28;20445;-74
2022/08/11 13:46:35;;;;;;;3.40;2.83;;;;;;;;;;10503158;28;20432;-74
2022/08/11 13:51:39;;;;;;;4.30;2.75;;;;;;;;;;10491592;28;20021;-75
2022/08/11 13:56:41;;;;;;;4.00;2.70;;;;;;;;;;10473743;28;20419;-74
2022/08/11 14:01:46;;;;;;;2.60;2.20;;;;;;;;;;10474695;28;20114;-74
2022/08/11 14:06:49;;;;;;;12.77;2.53;;;;;;;;;;10498671;28;20028;-75
2022/08/11 14:17:11;;;;;;;3.63;2.08;;;;;;;;;;10498548;28;20024;-74
2022/08/11 14:22:12;;;;;;;3.25;2.13;;;;;;;;;;10480170;28;20021;-74
2022/08/11 14:27:13;;;;;;;3.65;2.67;;;;;;;;;;10479888;28;20024;-74
2022/08/11 14:32:14;;;;;;;3.08;2.60;;;;;;;;;;10479672;28;20028;-74
2022/08/11 14:37:18;;;;;;;4.93;2.50;;;;;;;;;;10479212;28;20480;-75
2022/08/11 14:47:39;;;;;;;5.60;2.38;;;;;;;;;;10511257;28;20020;-74
2022/08/11 14:52:48;;;;;;;5.50;2.42;;;;;;;;;;10478309;28;20078;-75
2022/08/11 14:57:50;;;;;;;3.90;2.88;;;;;;;;;;10496312;28;20029;-74
2022/08/11 15:03:09;;;;;;;5.10;2.80;;;;;;;;;;10495222;28;20051;-74
2022/08/11 15:08:12;;;;;;;6.20;2.88;;;;;;;;;;10478114;28;20436;-75
2022/08/11 15:13:17;;;;;;;6.45;3.10;;;;;;;;;;10477855;28;20031;-74
2022/08/11 15:18:18;;;;;;;5.38;2.95;;;;;;;;;;10477777;28;20029;-73
2022/08/11 15:45:46;;;;;;;9.25;3.10;;;;;;;;;;10517196;22;20111;-74
2022/08/11 15:50:20;;;;;;;5.30;3.15;;;;;;;;;;10453140;28;20017;-74
2022/08/11 15:55:22;;;;;;;7.50;3.07;;;;;;;;;;10452898;28;20025;-75
2022/08/11 16:05:43;;;;;;;4.32;2.72;;;;;;;;;;10452789;28;20013;-75
2022/08/11 16:10:44;;;;;;;6.63;2.78;;;;;;;;;;10451715;28;20029;-74
2022/08/11 16:21:09;;;;;;;5.70;3.38;;;;;;;;;;10451927;28;20021;-74
2022/08/11 16:26:11;;;;;;;3.65;2.90;;;;;;;;;;10450035;28;20028;-74
2022/08/11 16:31:11;;;;;;;3.63;2.60;;;;;;;;;;10445634;28;20028;-74
2022/08/11 16:47:00;;;;;;;5.70;3.25;;;;;;;;;;10451247;28;20053;-73
2022/08/11 16:52:03;;;;;;;5.40;3.30;;;;;;;;;;10451424;28;20029;-74
2022/08/11 17:13:11;;;;;;;3.00;2.50;;;;;;;;;;10451334;28;20085;-72
2022/08/11 17:18:38;;;;;;;6.18;3.28;;;;;;;;;;10450035;28;20057;-74
2022/08/11 17:23:48;;;;;;;3.38;2.90;;;;;;;;;;10450969;28;20060;-74
2022/08/11 17:28:51;;;;;;;6.25;3.22;;;;;;;;;;10449640;28;20035;-75
2022/08/11 17:39:11;;;;;;;10.52;3.05;;;;;;;;;;10458590;28;20064;-76
2022/08/11 17:49:36;;;;;;;2.85;2.35;;;;;;;;;;10416952;28;20018;-75
2022/08/11 17:59:56;;;;;;;3.25;2.70;;;;;;;;;;10417472;28;20081;-75
2022/08/11 18:04:57;;;;;;;4.00;2.75;;;;;;;;;;10432345;28;20439;-76
